sensor_id;sensor_type;location;lat;lon;timestamp;temperature;humidity
2757;DHT22;1386;50.862;6.494;2024-03-02T00:48:52;8.70;99.90
2757;DHT22;1386;50.862;6.494;2024-03-02T00:51:22;8.70;99.90
2757;DHT22;1386;50.862;6.494;2024-03-02T00:53:49;8.70;99.90
2757;DHT22;1386;50.862;6.494;2024-03-02T00:56:18;8.70;99.90
2757;DHT22;1386;50.862;6.494;2024-03-02T00:58:45;8.70;99.90
2757;DHT22;1386;50.862;6.494;2024-03-02T01:01:12;8.70;99.90
2757;DHT22;1386;50.862;6.494;2024-03-02T01:03:40;8.70;99.90
2757;DHT22;1386;50.862;6.494;2024-03-02T01:06:09;8.70;99.90
2757;DHT22;1386;50.862;6.494;2024-03-02T01:08:38;8.70;99.90
2757;DHT22;1386;50.862;6.494;2024-03-02T01:11:05;8.80;99.90
2757;DHT22;1386;50.862;6.494;2024-03-02T01:13:32;8.80;99.90
2757;DHT22;1386;50.862;6.494;2024-03-02T01:16:00;8.80;99.90
2757;DHT22;1386;50.862;6.494;2024-03-02T01:18:28;8.70;99.90
2757;DHT22;1386;50.862;6.494;2024-03-02T01:20:56;8.70;99.90
2757;DHT22;1386;50.862;6.494;2024-03-02T01:23:25;8.70;99.90
2757;DHT22;1386;50.862;6.494;2024-03-02T01:25:52;8.70;99.90
2757;DHT22;1386;50.862;6.494;2024-03-02T01:28:21;8.80;99.90
2757;DHT22;1386;50.862;6.494;2024-03-02T01:30:48;8.80;99.90
2757;DHT22;1386;50.862;6.494;2024-03-02T01:33:16;8.80;99.90
2757;DHT22;1386;50.862;6.494;2024-03-02T01:35:43;8.80;99.90
2757;DHT22;1386;50.862;6.494;2024-03-02T01:38:10;8.80;99.90
2757;DHT22;1386;50.862;6.494;2024-03-02T01:40:38;8.80;99.90
2757;DHT22;1386;50.862;6.494;2024-03-02T01:43:06;8.80;99.90
2757;DHT22;1386;50.862;6.494;2024-03-02T01:45:33;8.90;99.90
2757;DHT22;1386;50.862;6.494;2024-03-02T01:47:59;8.90;99.90
2757;DHT22;1386;50.862;6.494;2024-03-02T01:50:27;8.90;99.90
2757;DHT22;1386;50.862;6.494;2024-03-02T01:52:55;9.00;99.90
2757;DHT22;1386;50.862;6.494;2024-03-02T01:55:25;9.10;99.90
2757;DHT22;1386;50.862;6.494;2024-03-02T01:57:57;9.10;99.90
2757;DHT22;1386;50.862;6.494;2024-03-02T02:00:24;9.10;99.90
2757;DHT22;1386;50.862;6.494;2024-03-02T02:02:52;9.20;99.90
2757;DHT22;1386;50.862;6.494;2024-03-02T02:05:19;9.20;99.90
2757;DHT22;1386;50.862;6.494;2024-03-02T02:07:46;9.20;99.90
2757;DHT22;1386;50.862;6.494;2024-03-02T02:10:27;9.20;99.90
2757;DHT22;1386;50.862;6.494;2024-03-02T02:13:03;9.20;99.90
2757;DHT22;1386;50.862;6.494;2024-03-02T02:15:30;9.30;99.90
2757;DHT22;1386;50.862;6.494;2024-03-02T02:18:00;9.30;99.90
2757;DHT22;1386;50.862;6.494;2024-03-02T02:20:27;9.30;99.90
2757;DHT22;1386;50.862;6.494;2024-03-02T02:22:59;9.30;99.90
2757;DHT22;1386;50.862;6.494;2024-03-02T02:25:27;9.40;99.90
2757;DHT22;1386;50.862;6.494;2024-03-02T02:27:54;9.40;99.90
2757;DHT22;1386;50.862;6.494;2024-03-02T02:30:24;9.40;99.90
2757;DHT22;1386;50.862;6.494;2024-03-02T02:33:02;9.40;99.90
2757;DHT22;1386;50.862;6.494;2024-03-02T02:35:37;9.50;99.90
2757;DHT22;1386;50.862;6.494;2024-03-02T02:38:06;9.40;99.90
2757;DHT22;1386;50.862;6.494;2024-03-02T02:40:38;9.40;99.90
2757;DHT22;1386;50.862;6.494;2024-03-02T02:43:09;9.40;99.90
2757;DHT22;1386;50.862;6.494;2024-03-02T02:45:36;9.40;99.90
2757;DHT22;1386;50.862;6.494;2024-03-02T02:48:04;9.40;99.90
2757;DHT22;1386;50.862;6.494;2024-03-02T02:50:31;9.40;99.90
2757;DHT22;1386;50.862;6.494;2024-03-02T02:52:58;9.40;99.90
2757;DHT22;1386;50.862;6.494;2024-03-02T02:55:26;9.40;99.90
2757;DHT22;1386;50.862;6.494;2024-03-02T02:57:53;9.40;99.90
2757;DHT22;1386;50.862;6.494;2024-03-02T03:00:21;9.40;99.90
2757;DHT22;1386;50.862;6.494;2024-03-02T03:02:51;9.40;99.90
2757;DHT22;1386;50.862;6.494;2024-03-02T03:05:22;9.40;99.90
2757;DHT22;1386;50.862;6.494;2024-03-02T03:07:49;9.40;99.90
2757;DHT22;1386;50.862;6.494;2024-03-02T03:10:27;9.30;99.90
2757;DHT22;1386;50.862;6.494;2024-03-02T03:13:20;9.30;99.90
2757;DHT22;1386;50.862;6.494;2024-03-02T03:15:54;9.40;99.90
2757;DHT22;1386;50.862;6.494;2024-03-02T03:18:27;9.40;99.90
2757;DHT22;1386;50.862;6.494;2024-03-02T03:20:58;9.40;99.90
2757;DHT22;1386;50.862;6.494;2024-03-02T03:23:30;9.40;99.90
2757;DHT22;1386;50.862;6.494;2024-03-02T03:25:58;9.40;99.90
2757;DHT22;1386;50.862;6.494;2024-03-02T03:28:42;9.40;99.90
2757;DHT22;1386;50.862;6.494;2024-03-02T03:31:12;9.40;99.90
2757;DHT22;1386;50.862;6.494;2024-03-02T03:33:45;9.40;99.90
2757;DHT22;1386;50.862;6.494;2024-03-02T03:36:12;9.30;99.90
2757;DHT22;1386;50.862;6.494;2024-03-02T03:38:40;9.30;99.90
2757;DHT22;1386;50.862;6.494;2024-03-02T03:41:06;9.30;99.90
2757;DHT22;1386;50.862;6.494;2024-03-02T03:43:35;9.20;99.90
2757;DHT22;1386;50.862;6.494;2024-03-02T03:46:03;9.20;99.90
2757;DHT22;1386;50.862;6.494;2024-03-02T03:48:40;9.20;99.90
2757;DHT22;1386;50.862;6.494;2024-03-02T03:51:11;9.20;99.90
2757;DHT22;1386;50.862;6.494;2024-03-02T03:53:37;9.10;99.90
2757;DHT22;1386;50.862;6.494;2024-03-02T03:56:05;9.10;99.90
2757;DHT22;1386;50.862;6.494;2024-03-02T04:52:57;8.60;99.90
2757;DHT22;1386;50.862;6.494;2024-03-02T04:55:29;8.60;99.90
2757;DHT22;1386;50.862;6.494;2024-03-02T04:58:13;8.50;99.90
2757;DHT22;1386;50.862;6.494;2024-03-02T05:00:40;8.50;99.90
2757;DHT22;1386;50.862;6.494;2024-03-02T05:03:08;8.50;99.90
2757;DHT22;1386;50.862;6.494;2024-03-02T06:19:40;7.90;99.90
2757;DHT22;1386;50.862;6.494;2024-03-02T06:23:00;7.90;99.90
2757;DHT22;1386;50.862;6.494;2024-03-02T06:25:57;7.90;99.90
2757;DHT22;1386;50.862;6.494;2024-03-02T06:29:30;7.90;99.90
2757;DHT22;1386;50.862;6.494;2024-03-02T06:40:05;7.90;99.90
2757;DHT22;1386;50.862;6.494;2024-03-02T06:48:34;8.00;99.90
2757;DHT22;1386;50.862;6.494;2024-03-02T06:54:49;8.10;99.90
2757;DHT22;1386;50.862;6.494;2024-03-02T06:57:50;8.10;99.90
2757;DHT22;1386;50.862;6.494;2024-03-02T07:00:57;8.10;99.90
2757;DHT22;1386;50.862;6.494;2024-03-02T07:04:15;8.20;99.90
2757;DHT22;1386;50.862;6.494;2024-03-02T07:08:00;8.20;99.90
2757;DHT22;1386;50.862;6.494;2024-03-02T07:10:21;8.20;99.90
2757;DHT22;1386;50.862;6.494;2024-03-02T07:13:15;8.30;99.90
2757;DHT22;1386;50.862;6.494;2024-03-02T07:16:17;8.30;99.90
2757;DHT22;1386;50.862;6.494;2024-03-02T07:19:17;8.30;99.90
2757;DHT22;1386;50.862;6.494;2024-03-02T07:22:08;8.30;99.90
2757;DHT22;1386;50.862;6.494;2024-03-02T07:24:44;8.40;99.90
2757;DHT22;1386;50.862;6.494;2024-03-02T07:27:23;8.40;99.90
2757;DHT22;1386;50.862;6.494;2024-03-02T07:30:14;8.40;99.90
2757;DHT22;1386;50.862;6.494;2024-03-02T07:33:17;8.40;99.90
2757;DHT22;1386;50.862;6.494;2024-03-02T07:36:35;8.40;99.90
2757;DHT22;1386;50.862;6.494;2024-03-02T07:39:34;8.50;99.90
2757;DHT22;1386;50.862;6.494;2024-03-02T07:42:22;8.40;99.90
2757;DHT22;1386;50.862;6.494;2024-03-02T07:45:18;8.50;99.90
2757;DHT22;1386;50.862;6.494;2024-03-02T07:47:54;8.50;99.90
2757;DHT22;1386;50.862;6.494;2024-03-02T07:50:43;8.50;99.90
2757;DHT22;1386;50.862;6.494;2024-03-02T07:53:38;8.50;99.90
2757;DHT22;1386;50.862;6.494;2024-03-02T07:56:25;8.50;99.90
2757;DHT22;1386;50.862;6.494;2024-03-02T07:59:30;8.50;99.90
2757;DHT22;1386;50.862;6.494;2024-03-02T08:02:30;8.60;99.90
2757;DHT22;1386;50.862;6.494;2024-03-02T08:05:29;8.60;99.90
2757;DHT22;1386;50.862;6.494;2024-03-02T08:15:15;8.60;99.90
2757;DHT22;1386;50.862;6.494;2024-03-02T08:21:15;8.60;99.90
2757;DHT22;1386;50.862;6.494;2024-03-02T08:27:04;8.70;99.90
2757;DHT22;1386;50.862;6.494;2024-03-02T08:29:31;8.80;99.90
2757;DHT22;1386;50.862;6.494;2024-03-02T08:31:59;8.80;99.90
2757;DHT22;1386;50.862;6.494;2024-03-02T08:34:26;8.90;99.90
2757;DHT22;1386;50.862;6.494;2024-03-02T08:36:53;8.90;99.90
2757;DHT22;1386;50.862;6.494;2024-03-02T08:39:20;9.00;99.90
2757;DHT22;1386;50.862;6.494;2024-03-02T08:41:47;9.00;99.90
2757;DHT22;1386;50.862;6.494;2024-03-02T08:44:15;9.00;99.90
2757;DHT22;1386;50.862;6.494;2024-03-02T08:46:42;9.10;99.90
2757;DHT22;1386;50.862;6.494;2024-03-02T08:49:10;9.10;99.90
2757;DHT22;1386;50.862;6.494;2024-03-02T08:51:37;9.10;99.90
2757;DHT22;1386;50.862;6.494;2024-03-02T08:54:04;9.20;99.90
2757;DHT22;1386;50.862;6.494;2024-03-02T08:56:31;9.20;99.90
2757;DHT22;1386;50.862;6.494;2024-03-02T08:58:59;9.20;99.90
2757;DHT22;1386;50.862;6.494;2024-03-02T09:01:25;9.30;99.90
2757;DHT22;1386;50.862;6.494;2024-03-02T09:03:52;9.30;99.90
2757;DHT22;1386;50.862;6.494;2024-03-02T09:06:21;9.40;99.90
2757;DHT22;1386;50.862;6.494;2024-03-02T09:08:48;9.40;99.90
2757;DHT22;1386;50.862;6.494;2024-03-02T09:11:17;9.40;99.90
2757;DHT22;1386;50.862;6.494;2024-03-02T09:13:44;9.40;99.90
2757;DHT22;1386;50.862;6.494;2024-03-02T09:16:11;9.40;99.90
2757;DHT22;1386;50.862;6.494;2024-03-02T09:18:38;9.40;99.90
2757;DHT22;1386;50.862;6.494;2024-03-02T09:21:10;9.50;99.90
2757;DHT22;1386;50.862;6.494;2024-03-02T09:23:50;9.90;99.90
2757;DHT22;1386;50.862;6.494;2024-03-02T09:26:23;9.90;99.90
2757;DHT22;1386;50.862;6.494;2024-03-02T09:29:08;9.80;99.90
2757;DHT22;1386;50.862;6.494;2024-03-02T09:31:42;9.80;99.90
2757;DHT22;1386;50.862;6.494;2024-03-02T09:34:12;9.80;99.90
2757;DHT22;1386;50.862;6.494;2024-03-02T09:36:47;9.90;99.90
2757;DHT22;1386;50.862;6.494;2024-03-02T09:39:16;10.10;99.90
2757;DHT22;1386;50.862;6.494;2024-03-02T09:41:59;10.30;99.90
2757;DHT22;1386;50.862;6.494;2024-03-02T09:44:26;10.40;99.90
2757;DHT22;1386;50.862;6.494;2024-03-02T09:46:53;10.40;99.90
2757;DHT22;1386;50.862;6.494;2024-03-02T09:49:20;10.50;99.90
2757;DHT22;1386;50.862;6.494;2024-03-02T09:51:48;10.50;99.90
2757;DHT22;1386;50.862;6.494;2024-03-02T09:54:17;10.60;99.90
2757;DHT22;1386;50.862;6.494;2024-03-02T09:56:44;10.50;99.90
2757;DHT22;1386;50.862;6.494;2024-03-02T09:59:11;10.50;99.90
2757;DHT22;1386;50.862;6.494;2024-03-02T10:01:39;10.50;99.90
2757;DHT22;1386;50.862;6.494;2024-03-02T10:04:05;10.50;99.90
2757;DHT22;1386;50.862;6.494;2024-03-02T10:06:32;10.60;99.90
2757;DHT22;1386;50.862;6.494;2024-03-02T10:08:59;10.80;99.90
2757;DHT22;1386;50.862;6.494;2024-03-02T10:11:29;11.00;99.90
2757;DHT22;1386;50.862;6.494;2024-03-02T10:14:06;11.20;99.90
2757;DHT22;1386;50.862;6.494;2024-03-02T10:16:35;11.40;99.90
2757;DHT22;1386;50.862;6.494;2024-03-02T10:19:27;11.50;99.90
2757;DHT22;1386;50.862;6.494;2024-03-02T10:22:01;11.60;99.90
2757;DHT22;1386;50.862;6.494;2024-03-02T10:24:35;11.70;99.90
2757;DHT22;1386;50.862;6.494;2024-03-02T10:27:07;11.80;99.90
2757;DHT22;1386;50.862;6.494;2024-03-02T10:29:37;11.90;99.90
2757;DHT22;1386;50.862;6.494;2024-03-02T10:32:05;12.10;99.90
2757;DHT22;1386;50.862;6.494;2024-03-02T10:34:36;12.10;99.90
2757;DHT22;1386;50.862;6.494;2024-03-02T10:39:42;12.50;99.90
2757;DHT22;1386;50.862;6.494;2024-03-02T10:42:14;12.60;99.90
2757;DHT22;1386;50.862;6.494;2024-03-02T10:44:42;12.60;99.90
2757;DHT22;1386;50.862;6.494;2024-03-02T10:47:12;12.80;99.90
2757;DHT22;1386;50.862;6.494;2024-03-02T10:49:42;12.70;99.90
2757;DHT22;1386;50.862;6.494;2024-03-02T10:52:09;12.90;99.90
2757;DHT22;1386;50.862;6.494;2024-03-02T10:54:36;12.80;99.90
2757;DHT22;1386;50.862;6.494;2024-03-02T10:57:17;12.80;99.90
2757;DHT22;1386;50.862;6.494;2024-03-02T11:43:47;14.20;99.90
2757;DHT22;1386;50.862;6.494;2024-03-02T11:46:17;14.10;99.90
2757;DHT22;1386;50.862;6.494;2024-03-02T11:48:43;13.80;99.90
2757;DHT22;1386;50.862;6.494;2024-03-02T11:51:11;13.80;99.90
2757;DHT22;1386;50.862;6.494;2024-03-02T11:53:39;13.90;99.90
2757;DHT22;1386;50.862;6.494;2024-03-02T11:56:09;14.00;99.90
2757;DHT22;1386;50.862;6.494;2024-03-02T11:58:39;13.90;99.90
2757;DHT22;1386;50.862;6.494;2024-03-02T12:01:10;14.00;99.90
2757;DHT22;1386;50.862;6.494;2024-03-02T12:03:38;13.90;99.90
2757;DHT22;1386;50.862;6.494;2024-03-02T12:06:05;13.90;99.90
2757;DHT22;1386;50.862;6.494;2024-03-02T12:08:32;13.80;99.90
2757;DHT22;1386;50.862;6.494;2024-03-02T12:11:01;13.70;99.90
2757;DHT22;1386;50.862;6.494;2024-03-02T12:13:28;13.60;99.90
2757;DHT22;1386;50.862;6.494;2024-03-02T12:15:57;13.60;99.90
2757;DHT22;1386;50.862;6.494;2024-03-02T12:18:26;13.70;99.90
2757;DHT22;1386;50.862;6.494;2024-03-02T12:20:52;13.70;99.90
2757;DHT22;1386;50.862;6.494;2024-03-02T12:23:22;13.60;99.90
2757;DHT22;1386;50.862;6.494;2024-03-02T12:25:50;13.60;99.90
2757;DHT22;1386;50.862;6.494;2024-03-02T12:28:17;13.50;99.90
2757;DHT22;1386;50.862;6.494;2024-03-02T12:30:45;13.50;99.90
2757;DHT22;1386;50.862;6.494;2024-03-02T12:33:18;13.50;99.90
2757;DHT22;1386;50.862;6.494;2024-03-02T12:35:54;13.40;99.90
2757;DHT22;1386;50.862;6.494;2024-03-02T12:38:21;13.40;99.90
2757;DHT22;1386;50.862;6.494;2024-03-02T12:40:51;13.30;99.90
2757;DHT22;1386;50.862;6.494;2024-03-02T12:43:18;13.30;99.90
2757;DHT22;1386;50.862;6.494;2024-03-02T12:45:45;13.20;99.90
2757;DHT22;1386;50.862;6.494;2024-03-02T12:48:13;13.30;99.90
2757;DHT22;1386;50.862;6.494;2024-03-02T12:50:41;13.30;99.90
2757;DHT22;1386;50.862;6.494;2024-03-02T12:53:15;13.30;99.90
2757;DHT22;1386;50.862;6.494;2024-03-02T12:55:44;13.30;99.90
2757;DHT22;1386;50.862;6.494;2024-03-02T12:58:17;13.40;99.90
2757;DHT22;1386;50.862;6.494;2024-03-02T13:00:43;13.40;99.90
2757;DHT22;1386;50.862;6.494;2024-03-02T13:03:11;13.30;99.90
2757;DHT22;1386;50.862;6.494;2024-03-02T13:05:40;13.20;99.90
2757;DHT22;1386;50.862;6.494;2024-03-02T13:08:06;13.20;99.90
2757;DHT22;1386;50.862;6.494;2024-03-02T13:10:35;13.30;99.90
2757;DHT22;1386;50.862;6.494;2024-03-02T13:13:02;13.30;99.90
2757;DHT22;1386;50.862;6.494;2024-03-02T13:15:29;13.30;99.90
2757;DHT22;1386;50.862;6.494;2024-03-02T13:17:59;13.40;99.90
2757;DHT22;1386;50.862;6.494;2024-03-02T13:20:30;13.30;99.90
2757;DHT22;1386;50.862;6.494;2024-03-02T13:22:58;13.30;99.90
2757;DHT22;1386;50.862;6.494;2024-03-02T13:25:25;13.30;99.90
2757;DHT22;1386;50.862;6.494;2024-03-02T13:27:53;13.30;99.90
2757;DHT22;1386;50.862;6.494;2024-03-02T13:30:20;13.40;99.90
2757;DHT22;1386;50.862;6.494;2024-03-02T13:32:47;13.40;99.90
2757;DHT22;1386;50.862;6.494;2024-03-02T13:35:14;13.30;99.90
2757;DHT22;1386;50.862;6.494;2024-03-02T13:37:41;13.40;99.90
2757;DHT22;1386;50.862;6.494;2024-03-02T13:40:09;13.30;99.90
2757;DHT22;1386;50.862;6.494;2024-03-02T13:42:39;13.20;99.90
2757;DHT22;1386;50.862;6.494;2024-03-02T13:45:08;13.30;99.90
2757;DHT22;1386;50.862;6.494;2024-03-02T13:47:35;13.20;99.90
2757;DHT22;1386;50.862;6.494;2024-03-02T13:50:02;13.20;99.90
2757;DHT22;1386;50.862;6.494;2024-03-02T13:52:30;13.20;99.90
2757;DHT22;1386;50.862;6.494;2024-03-02T13:54:57;13.10;99.90
2757;DHT22;1386;50.862;6.494;2024-03-02T13:57:24;13.20;99.90
2757;DHT22;1386;50.862;6.494;2024-03-02T13:59:52;13.20;99.90
2757;DHT22;1386;50.862;6.494;2024-03-02T14:02:21;13.40;99.90
2757;DHT22;1386;50.862;6.494;2024-03-02T14:04:49;13.40;99.90
2757;DHT22;1386;50.862;6.494;2024-03-02T14:07:16;13.50;99.90
2757;DHT22;1386;50.862;6.494;2024-03-02T14:09:44;13.50;99.90
2757;DHT22;1386;50.862;6.494;2024-03-02T14:12:12;13.50;99.90
2757;DHT22;1386;50.862;6.494;2024-03-02T14:14:39;13.60;99.90
2757;DHT22;1386;50.862;6.494;2024-03-02T14:17:06;13.60;99.90
2757;DHT22;1386;50.862;6.494;2024-03-02T14:19:39;13.50;99.90
2757;DHT22;1386;50.862;6.494;2024-03-02T14:22:07;13.50;99.90
2757;DHT22;1386;50.862;6.494;2024-03-02T14:24:36;13.50;99.90
2757;DHT22;1386;50.862;6.494;2024-03-02T14:27:04;13.50;99.90
2757;DHT22;1386;50.862;6.494;2024-03-02T14:29:31;13.60;99.90
2757;DHT22;1386;50.862;6.494;2024-03-02T14:32:02;13.60;99.90
2757;DHT22;1386;50.862;6.494;2024-03-02T14:34:29;13.60;99.90
2757;DHT22;1386;50.862;6.494;2024-03-02T14:36:59;13.60;99.90
2757;DHT22;1386;50.862;6.494;2024-03-02T14:39:26;13.60;99.90
2757;DHT22;1386;50.862;6.494;2024-03-02T14:41:53;13.60;99.90
2757;DHT22;1386;50.862;6.494;2024-03-02T14:44:21;13.60;99.90
2757;DHT22;1386;50.862;6.494;2024-03-02T14:46:49;13.60;99.90
2757;DHT22;1386;50.862;6.494;2024-03-02T14:49:17;13.50;99.90
2757;DHT22;1386;50.862;6.494;2024-03-02T14:51:45;13.40;99.90
2757;DHT22;1386;50.862;6.494;2024-03-02T14:54:16;13.40;99.90
2757;DHT22;1386;50.862;6.494;2024-03-02T14:56:44;13.40;99.90
2757;DHT22;1386;50.862;6.494;2024-03-02T14:59:10;13.40;99.90
2757;DHT22;1386;50.862;6.494;2024-03-02T15:01:38;13.30;99.90
2757;DHT22;1386;50.862;6.494;2024-03-02T15:04:05;13.30;99.90
2757;DHT22;1386;50.862;6.494;2024-03-02T15:06:32;13.30;99.90
2757;DHT22;1386;50.862;6.494;2024-03-02T15:08:59;13.30;99.90
2757;DHT22;1386;50.862;6.494;2024-03-02T15:11:28;13.30;99.90
2757;DHT22;1386;50.862;6.494;2024-03-02T15:13:55;13.20;99.90
2757;DHT22;1386;50.862;6.494;2024-03-02T15:16:23;13.20;99.90
2757;DHT22;1386;50.862;6.494;2024-03-02T15:18:50;13.00;99.90
2757;DHT22;1386;50.862;6.494;2024-03-02T15:21:16;13.00;99.90
2757;DHT22;1386;50.862;6.494;2024-03-02T15:23:44;13.00;99.90
2757;DHT22;1386;50.862;6.494;2024-03-02T15:26:11;13.00;99.90
2757;DHT22;1386;50.862;6.494;2024-03-02T15:28:39;13.00;99.90
2757;DHT22;1386;50.862;6.494;2024-03-02T15:31:07;13.00;99.90
2757;DHT22;1386;50.862;6.494;2024-03-02T15:33:33;13.10;99.90
2757;DHT22;1386;50.862;6.494;2024-03-02T15:36:01;13.20;99.90
2757;DHT22;1386;50.862;6.494;2024-03-02T15:38:28;13.30;99.90
2757;DHT22;1386;50.862;6.494;2024-03-02T15:40:55;13.30;99.90
2757;DHT22;1386;50.862;6.494;2024-03-02T15:43:23;13.40;99.90
2757;DHT22;1386;50.862;6.494;2024-03-02T15:45:51;13.40;99.90
2757;DHT22;1386;50.862;6.494;2024-03-02T15:48:18;13.40;99.90
2757;DHT22;1386;50.862;6.494;2024-03-02T15:50:45;13.30;99.90
2757;DHT22;1386;50.862;6.494;2024-03-02T15:53:12;13.30;99.90
2757;DHT22;1386;50.862;6.494;2024-03-02T15:55:39;13.30;99.90
2757;DHT22;1386;50.862;6.494;2024-03-02T15:58:06;13.20;99.90
2757;DHT22;1386;50.862;6.494;2024-03-02T16:00:33;13.20;99.90
2757;DHT22;1386;50.862;6.494;2024-03-02T16:03:02;13.20;99.90
2757;DHT22;1386;50.862;6.494;2024-03-02T16:05:29;13.20;99.90
2757;DHT22;1386;50.862;6.494;2024-03-02T16:07:56;13.10;99.90
2757;DHT22;1386;50.862;6.494;2024-03-02T16:10:23;13.10;99.90
2757;DHT22;1386;50.862;6.494;2024-03-02T16:12:53;13.00;99.90
2757;DHT22;1386;50.862;6.494;2024-03-02T16:15:21;13.00;99.90
2757;DHT22;1386;50.862;6.494;2024-03-02T16:17:48;12.90;99.90
2757;DHT22;1386;50.862;6.494;2024-03-02T16:20:16;12.90;99.90
2757;DHT22;1386;50.862;6.494;2024-03-02T16:22:43;12.80;99.90
2757;DHT22;1386;50.862;6.494;2024-03-02T16:25:10;12.80;99.90
2757;DHT22;1386;50.862;6.494;2024-03-02T16:27:37;12.80;99.90
2757;DHT22;1386;50.862;6.494;2024-03-02T16:30:05;12.70;99.90
2757;DHT22;1386;50.862;6.494;2024-03-02T16:32:33;12.70;99.90
2757;DHT22;1386;50.862;6.494;2024-03-02T16:35:00;12.70;99.90
2757;DHT22;1386;50.862;6.494;2024-03-02T16:37:29;12.60;99.90
2757;DHT22;1386;50.862;6.494;2024-03-02T16:39:55;12.60;99.90
2757;DHT22;1386;50.862;6.494;2024-03-02T16:42:22;12.60;99.90
2757;DHT22;1386;50.862;6.494;2024-03-02T16:44:50;12.60;99.90
2757;DHT22;1386;50.862;6.494;2024-03-02T16:47:20;12.70;99.90
2757;DHT22;1386;50.862;6.494;2024-03-02T16:49:47;12.70;99.90
2757;DHT22;1386;50.862;6.494;2024-03-02T16:52:14;12.70;99.90
2757;DHT22;1386;50.862;6.494;2024-03-02T16:54:44;12.70;99.90
2757;DHT22;1386;50.862;6.494;2024-03-02T16:57:14;12.70;99.90
2757;DHT22;1386;50.862;6.494;2024-03-02T16:59:43;12.70;99.90
2757;DHT22;1386;50.862;6.494;2024-03-02T17:02:10;12.80;99.90
2757;DHT22;1386;50.862;6.494;2024-03-02T17:04:37;12.90;99.90
2757;DHT22;1386;50.862;6.494;2024-03-02T17:07:04;13.00;99.90
2757;DHT22;1386;50.862;6.494;2024-03-02T17:09:44;13.00;99.90
2757;DHT22;1386;50.862;6.494;2024-03-02T17:12:25;12.90;99.90
2757;DHT22;1386;50.862;6.494;2024-03-02T17:14:52;12.80;99.90
2757;DHT22;1386;50.862;6.494;2024-03-02T17:17:19;12.70;99.90
2757;DHT22;1386;50.862;6.494;2024-03-02T17:19:46;12.60;99.90
2757;DHT22;1386;50.862;6.494;2024-03-02T17:22:13;12.50;99.90
2757;DHT22;1386;50.862;6.494;2024-03-02T17:24:40;12.40;99.90
2757;DHT22;1386;50.862;6.494;2024-03-02T17:27:08;12.40;99.90
2757;DHT22;1386;50.862;6.494;2024-03-02T17:29:35;12.30;99.90
2757;DHT22;1386;50.862;6.494;2024-03-02T17:32:02;12.30;99.90
2757;DHT22;1386;50.862;6.494;2024-03-02T17:34:29;12.30;99.90
2757;DHT22;1386;50.862;6.494;2024-03-02T17:36:55;12.20;99.90
2757;DHT22;1386;50.862;6.494;2024-03-02T17:39:22;12.20;99.90
2757;DHT22;1386;50.862;6.494;2024-03-02T17:41:49;12.20;99.90
2757;DHT22;1386;50.862;6.494;2024-03-02T17:44:18;12.20;99.90
2757;DHT22;1386;50.862;6.494;2024-03-02T17:46:44;12.10;99.90
2757;DHT22;1386;50.862;6.494;2024-03-02T17:49:11;12.20;99.90
2757;DHT22;1386;50.862;6.494;2024-03-02T17:51:38;12.10;99.90
2757;DHT22;1386;50.862;6.494;2024-03-02T17:54:05;12.10;99.90
2757;DHT22;1386;50.862;6.494;2024-03-02T17:56:32;12.10;99.90
2757;DHT22;1386;50.862;6.494;2024-03-02T17:58:59;12.10;99.90
2757;DHT22;1386;50.862;6.494;2024-03-02T18:01:27;12.10;99.90
2757;DHT22;1386;50.862;6.494;2024-03-02T18:03:54;12.00;99.90
2757;DHT22;1386;50.862;6.494;2024-03-02T18:06:21;12.00;99.90
2757;DHT22;1386;50.862;6.494;2024-03-02T18:08:48;12.00;99.90
2757;DHT22;1386;50.862;6.494;2024-03-02T18:11:16;12.00;99.90
2757;DHT22;1386;50.862;6.494;2024-03-02T18:13:46;12.00;99.90
2757;DHT22;1386;50.862;6.494;2024-03-02T18:16:13;12.00;99.90
2757;DHT22;1386;50.862;6.494;2024-03-02T18:18:42;12.00;99.90
2757;DHT22;1386;50.862;6.494;2024-03-02T18:21:09;12.00;99.90
2757;DHT22;1386;50.862;6.494;2024-03-02T18:23:36;12.00;99.90
2757;DHT22;1386;50.862;6.494;2024-03-02T18:26:03;12.00;99.90
2757;DHT22;1386;50.862;6.494;2024-03-02T18:28:30;12.00;99.90
2757;DHT22;1386;50.862;6.494;2024-03-02T18:30:57;11.90;99.90
2757;DHT22;1386;50.862;6.494;2024-03-02T18:33:25;11.90;99.90
2757;DHT22;1386;50.862;6.494;2024-03-02T18:35:53;11.90;99.90
2757;DHT22;1386;50.862;6.494;2024-03-02T18:38:20;11.90;99.90
2757;DHT22;1386;50.862;6.494;2024-03-02T18:40:48;11.90;99.90
2757;DHT22;1386;50.862;6.494;2024-03-02T18:43:15;11.80;99.90
2757;DHT22;1386;50.862;6.494;2024-03-02T18:45:41;11.80;99.90
2757;DHT22;1386;50.862;6.494;2024-03-02T18:48:08;11.70;99.90
2757;DHT22;1386;50.862;6.494;2024-03-02T18:50:35;11.70;99.90
2757;DHT22;1386;50.862;6.494;2024-03-02T18:53:04;11.70;99.90
2757;DHT22;1386;50.862;6.494;2024-03-02T18:55:31;11.60;99.90
2757;DHT22;1386;50.862;6.494;2024-03-02T18:57:58;11.60;99.90
2757;DHT22;1386;50.862;6.494;2024-03-02T19:00:25;11.60;99.90
2757;DHT22;1386;50.862;6.494;2024-03-02T19:02:51;11.60;99.90
2757;DHT22;1386;50.862;6.494;2024-03-02T19:05:20;11.60;99.90
2757;DHT22;1386;50.862;6.494;2024-03-02T19:07:47;11.50;99.90
2757;DHT22;1386;50.862;6.494;2024-03-02T19:10:15;11.50;99.90
2757;DHT22;1386;50.862;6.494;2024-03-02T19:12:43;11.50;99.90
2757;DHT22;1386;50.862;6.494;2024-03-02T19:15:10;11.50;99.90
2757;DHT22;1386;50.862;6.494;2024-03-02T19:17:39;11.40;99.90
2757;DHT22;1386;50.862;6.494;2024-03-02T19:20:07;11.50;99.90
2757;DHT22;1386;50.862;6.494;2024-03-02T19:22:36;11.40;99.90
2757;DHT22;1386;50.862;6.494;2024-03-02T19:25:03;11.40;99.90
2757;DHT22;1386;50.862;6.494;2024-03-02T19:27:34;11.40;99.90
2757;DHT22;1386;50.862;6.494;2024-03-02T19:30:01;11.40;99.90
2757;DHT22;1386;50.862;6.494;2024-03-02T19:32:30;11.40;99.90
2757;DHT22;1386;50.862;6.494;2024-03-02T19:34:57;11.40;99.90
2757;DHT22;1386;50.862;6.494;2024-03-02T19:37:25;11.30;99.90
2757;DHT22;1386;50.862;6.494;2024-03-02T19:39:52;11.30;99.90
2757;DHT22;1386;50.862;6.494;2024-03-02T19:42:19;11.40;99.90
2757;DHT22;1386;50.862;6.494;2024-03-02T19:44:47;11.40;99.90
2757;DHT22;1386;50.862;6.494;2024-03-02T19:47:14;11.40;99.90
2757;DHT22;1386;50.862;6.494;2024-03-02T19:49:43;11.40;99.90
2757;DHT22;1386;50.862;6.494;2024-03-02T19:52:10;11.40;99.90
2757;DHT22;1386;50.862;6.494;2024-03-02T19:54:37;11.40;99.90
2757;DHT22;1386;50.862;6.494;2024-03-02T19:57:04;11.40;99.90
2757;DHT22;1386;50.862;6.494;2024-03-02T19:59:38;11.40;99.90
2757;DHT22;1386;50.862;6.494;2024-03-02T20:02:06;11.40;99.90
2757;DHT22;1386;50.862;6.494;2024-03-02T20:04:37;11.40;99.90
2757;DHT22;1386;50.862;6.494;2024-03-02T20:07:04;11.30;99.90
2757;DHT22;1386;50.862;6.494;2024-03-02T20:09:31;11.30;99.90
2757;DHT22;1386;50.862;6.494;2024-03-02T20:11:58;11.30;99.90
2757;DHT22;1386;50.862;6.494;2024-03-02T20:14:25;11.30;99.90
2757;DHT22;1386;50.862;6.494;2024-03-02T20:16:52;11.30;99.90
2757;DHT22;1386;50.862;6.494;2024-03-02T20:19:20;11.20;99.90
2757;DHT22;1386;50.862;6.494;2024-03-02T20:21:48;11.20;99.90
2757;DHT22;1386;50.862;6.494;2024-03-02T20:24:15;11.20;99.90
2757;DHT22;1386;50.862;6.494;2024-03-02T20:26:42;11.20;99.90
2757;DHT22;1386;50.862;6.494;2024-03-02T20:29:09;11.20;99.90
2757;DHT22;1386;50.862;6.494;2024-03-02T20:31:37;11.20;99.90
2757;DHT22;1386;50.862;6.494;2024-03-02T20:34:03;11.10;99.90
2757;DHT22;1386;50.862;6.494;2024-03-02T20:36:32;11.10;99.90
2757;DHT22;1386;50.862;6.494;2024-03-02T20:38:59;11.20;99.90
2757;DHT22;1386;50.862;6.494;2024-03-02T20:41:25;11.10;99.90
2757;DHT22;1386;50.862;6.494;2024-03-02T20:43:52;11.10;99.90